sensor_id;sensor_type;location;lat;lon;timestamp;P1;durP1;ratioP1;P2;durP2;ratioP2
72601;SDS011;60644;55.858;37.390;2024-01-30T00:01:42;9.77;;;3.20;;
72601;SDS011;60644;55.858;37.390;2024-01-30T00:04:08;9.57;;;3.70;;
72601;SDS011;60644;55.858;37.390;2024-01-30T00:06:33;9.33;;;2.93;;
72601;SDS011;60644;55.858;37.390;2024-01-30T00:08:59;9.10;;;3.20;;
72601;SDS011;60644;55.858;37.390;2024-01-30T00:11:25;6.60;;;2.08;;
72601;SDS011;60644;55.858;37.390;2024-01-30T00:13:54;9.88;;;4.18;;
72601;SDS011;60644;55.858;37.390;2024-01-30T00:16:22;8.17;;;3.23;;
72601;SDS011;60644;55.858;37.390;2024-01-30T00:18:52;8.55;;;2.92;;
72601;SDS011;60644;55.858;37.390;2024-01-30T00:21:19;9.63;;;3.58;;
72601;SDS011;60644;55.858;37.390;2024-01-30T00:23:46;8.98;;;3.70;;
72601;SDS011;60644;55.858;37.390;2024-01-30T00:26:12;9.27;;;3.13;;
72601;SDS011;60644;55.858;37.390;2024-01-30T00:28:38;7.10;;;2.50;;
72601;SDS011;60644;55.858;37.390;2024-01-30T00:31:04;9.38;;;3.28;;
72601;SDS011;60644;55.858;37.390;2024-01-30T00:33:29;10.15;;;3.53;;
72601;SDS011;60644;55.858;37.390;2024-01-30T00:35:55;10.75;;;5.13;;
72601;SDS011;60644;55.858;37.390;2024-01-30T00:38:21;10.90;;;4.00;;
72601;SDS011;60644;55.858;37.390;2024-01-30T00:40:48;7.65;;;2.85;;
72601;SDS011;60644;55.858;37.390;2024-01-30T00:43:13;8.60;;;3.17;;
72601;SDS011;60644;55.858;37.390;2024-01-30T00:45:39;9.30;;;3.27;;
72601;SDS011;60644;55.858;37.390;2024-01-30T00:48:04;6.93;;;2.38;;
72601;SDS011;60644;55.858;37.390;2024-01-30T00:50:30;9.53;;;4.13;;
72601;SDS011;60644;55.858;37.390;2024-01-30T00:52:56;8.55;;;3.00;;
72601;SDS011;60644;55.858;37.390;2024-01-30T00:55:21;10.80;;;3.50;;
72601;SDS011;60644;55.858;37.390;2024-01-30T00:57:47;9.13;;;3.60;;
72601;SDS011;60644;55.858;37.390;2024-01-30T01:00:13;9.00;;;3.08;;
72601;SDS011;60644;55.858;37.390;2024-01-30T01:02:41;10.98;;;4.10;;
72601;SDS011;60644;55.858;37.390;2024-01-30T01:05:06;10.10;;;3.97;;
72601;SDS011;60644;55.858;37.390;2024-01-30T01:07:32;7.93;;;2.37;;
72601;SDS011;60644;55.858;37.390;2024-01-30T01:09:58;8.45;;;2.95;;
72601;SDS011;60644;55.858;37.390;2024-01-30T01:12:29;9.00;;;3.47;;
72601;SDS011;60644;55.858;37.390;2024-01-30T01:14:54;10.53;;;2.90;;
72601;SDS011;60644;55.858;37.390;2024-01-30T01:17:20;9.30;;;2.73;;
72601;SDS011;60644;55.858;37.390;2024-01-30T01:19:45;9.65;;;3.20;;
72601;SDS011;60644;55.858;37.390;2024-01-30T01:22:11;9.07;;;3.13;;
72601;SDS011;60644;55.858;37.390;2024-01-30T01:24:37;7.60;;;3.30;;
72601;SDS011;60644;55.858;37.390;2024-01-30T01:27:02;11.00;;;3.50;;
72601;SDS011;60644;55.858;37.390;2024-01-30T01:29:28;8.20;;;2.65;;
72601;SDS011;60644;55.858;37.390;2024-01-30T01:31:57;9.33;;;3.33;;
72601;SDS011;60644;55.858;37.390;2024-01-30T01:34:23;10.02;;;2.97;;
72601;SDS011;60644;55.858;37.390;2024-01-30T01:36:49;10.07;;;3.75;;
72601;SDS011;60644;55.858;37.390;2024-01-30T01:39:15;9.05;;;3.47;;
72601;SDS011;60644;55.858;37.390;2024-01-30T01:41:41;8.67;;;2.50;;
72601;SDS011;60644;55.858;37.390;2024-01-30T01:44:07;11.02;;;3.42;;
72601;SDS011;60644;55.858;37.390;2024-01-30T01:46:33;11.75;;;3.35;;
72601;SDS011;60644;55.858;37.390;2024-01-30T01:49:00;8.30;;;3.00;;
72601;SDS011;60644;55.858;37.390;2024-01-30T01:51:26;8.38;;;2.75;;
72601;SDS011;60644;55.858;37.390;2024-01-30T01:53:53;9.43;;;3.08;;
72601;SDS011;60644;55.858;37.390;2024-01-30T01:56:19;8.52;;;2.95;;
72601;SDS011;60644;55.858;37.390;2024-01-30T01:58:44;8.33;;;2.73;;
72601;SDS011;60644;55.858;37.390;2024-01-30T02:01:11;9.38;;;3.72;;
72601;SDS011;60644;55.858;37.390;2024-01-30T02:03:37;8.68;;;3.40;;
72601;SDS011;60644;55.858;37.390;2024-01-30T02:06:03;9.70;;;2.90;;
72601;SDS011;60644;55.858;37.390;2024-01-30T02:08:29;8.30;;;2.92;;
72601;SDS011;60644;55.858;37.390;2024-01-30T02:10:55;8.03;;;3.13;;
72601;SDS011;60644;55.858;37.390;2024-01-30T02:13:21;8.65;;;3.00;;
72601;SDS011;60644;55.858;37.390;2024-01-30T02:15:53;8.73;;;2.85;;
72601;SDS011;60644;55.858;37.390;2024-01-30T02:18:20;12.00;;;3.42;;
72601;SDS011;60644;55.858;37.390;2024-01-30T02:21:07;8.60;;;2.78;;
72601;SDS011;60644;55.858;37.390;2024-01-30T02:23:33;8.73;;;3.10;;
72601;SDS011;60644;55.858;37.390;2024-01-30T02:25:59;10.82;;;3.42;;
72601;SDS011;60644;55.858;37.390;2024-01-30T02:28:24;10.02;;;3.22;;
72601;SDS011;60644;55.858;37.390;2024-01-30T02:30:50;8.17;;;2.40;;
72601;SDS011;60644;55.858;37.390;2024-01-30T02:33:16;8.90;;;2.97;;
72601;SDS011;60644;55.858;37.390;2024-01-30T02:35:42;6.90;;;2.60;;
72601;SDS011;60644;55.858;37.390;2024-01-30T02:38:07;8.95;;;2.63;;
72601;SDS011;60644;55.858;37.390;2024-01-30T02:40:33;7.40;;;2.40;;
72601;SDS011;60644;55.858;37.390;2024-01-30T02:42:59;8.15;;;3.17;;
72601;SDS011;60644;55.858;37.390;2024-01-30T02:45:25;9.25;;;2.67;;
72601;SDS011;60644;55.858;37.390;2024-01-30T02:47:51;8.10;;;2.47;;
72601;SDS011;60644;55.858;37.390;2024-01-30T02:50:17;8.07;;;2.88;;
72601;SDS011;60644;55.858;37.390;2024-01-30T02:52:43;8.00;;;2.60;;
72601;SDS011;60644;55.858;37.390;2024-01-30T02:55:11;7.72;;;2.58;;
72601;SDS011;60644;55.858;37.390;2024-01-30T02:57:37;9.25;;;3.38;;
72601;SDS011;60644;55.858;37.390;2024-01-30T03:00:04;8.70;;;3.03;;
72601;SDS011;60644;55.858;37.390;2024-01-30T03:02:32;10.20;;;3.40;;
72601;SDS011;60644;55.858;37.390;2024-01-30T03:04:57;9.90;;;3.03;;
72601;SDS011;60644;55.858;37.390;2024-01-30T03:07:23;8.25;;;3.28;;
72601;SDS011;60644;55.858;37.390;2024-01-30T03:09:49;8.00;;;3.27;;
72601;SDS011;60644;55.858;37.390;2024-01-30T03:12:15;10.32;;;2.58;;
72601;SDS011;60644;55.858;37.390;2024-01-30T03:14:40;8.27;;;2.63;;
72601;SDS011;60644;55.858;37.390;2024-01-30T03:17:06;8.63;;;2.70;;
72601;SDS011;60644;55.858;37.390;2024-01-30T03:19:31;8.63;;;2.80;;
72601;SDS011;60644;55.858;37.390;2024-01-30T03:21:57;8.13;;;2.90;;
72601;SDS011;60644;55.858;37.390;2024-01-30T03:24:23;9.53;;;3.43;;
72601;SDS011;60644;55.858;37.390;2024-01-30T03:26:48;11.33;;;3.30;;
72601;SDS011;60644;55.858;37.390;2024-01-30T03:29:14;8.55;;;3.30;;
72601;SDS011;60644;55.858;37.390;2024-01-30T03:31:41;9.43;;;3.58;;
72601;SDS011;60644;55.858;37.390;2024-01-30T03:34:06;7.97;;;3.07;;
72601;SDS011;60644;55.858;37.390;2024-01-30T03:36:32;9.60;;;2.87;;
72601;SDS011;60644;55.858;37.390;2024-01-30T03:39:00;9.68;;;2.95;;
72601;SDS011;60644;55.858;37.390;2024-01-30T03:41:26;9.43;;;3.08;;
72601;SDS011;60644;55.858;37.390;2024-01-30T03:43:52;7.73;;;2.90;;
72601;SDS011;60644;55.858;37.390;2024-01-30T03:46:18;9.38;;;2.75;;
72601;SDS011;60644;55.858;37.390;2024-01-30T03:48:44;9.33;;;3.47;;
72601;SDS011;60644;55.858;37.390;2024-01-30T03:51:10;9.05;;;2.88;;
72601;SDS011;60644;55.858;37.390;2024-01-30T03:53:40;9.30;;;3.15;;
72601;SDS011;60644;55.858;37.390;2024-01-30T03:56:06;9.07;;;2.80;;
72601;SDS011;60644;55.858;37.390;2024-01-30T03:58:32;8.80;;;3.28;;
72601;SDS011;60644;55.858;37.390;2024-01-30T04:00:58;8.13;;;2.90;;
72601;SDS011;60644;55.858;37.390;2024-01-30T04:03:23;7.50;;;2.55;;
72601;SDS011;60644;55.858;37.390;2024-01-30T04:05:51;8.52;;;3.42;;
72601;SDS011;60644;55.858;37.390;2024-01-30T04:08:16;9.20;;;2.97;;
72601;SDS011;60644;55.858;37.390;2024-01-30T04:10:42;10.65;;;3.28;;
72601;SDS011;60644;55.858;37.390;2024-01-30T04:13:08;7.37;;;3.13;;
72601;SDS011;60644;55.858;37.390;2024-01-30T04:15:34;8.65;;;3.28;;
72601;SDS011;60644;55.858;37.390;2024-01-30T04:18:00;8.75;;;2.75;;
72601;SDS011;60644;55.858;37.390;2024-01-30T04:20:26;9.40;;;3.13;;
72601;SDS011;60644;55.858;37.390;2024-01-30T04:22:51;8.50;;;3.50;;
72601;SDS011;60644;55.858;37.390;2024-01-30T04:25:17;9.70;;;3.27;;
72601;SDS011;60644;55.858;37.390;2024-01-30T04:27:44;10.57;;;3.40;;
72601;SDS011;60644;55.858;37.390;2024-01-30T04:30:10;8.55;;;2.70;;
72601;SDS011;60644;55.858;37.390;2024-01-30T04:32:36;12.20;;;4.03;;
72601;SDS011;60644;55.858;37.390;2024-01-30T04:35:02;8.98;;;2.90;;
72601;SDS011;60644;55.858;37.390;2024-01-30T04:37:30;9.30;;;3.00;;
72601;SDS011;60644;55.858;37.390;2024-01-30T04:39:56;8.63;;;3.13;;
72601;SDS011;60644;55.858;37.390;2024-01-30T04:42:21;9.35;;;3.30;;
72601;SDS011;60644;55.858;37.390;2024-01-30T04:44:47;9.90;;;3.23;;
72601;SDS011;60644;55.858;37.390;2024-01-30T04:47:12;10.43;;;3.58;;
72601;SDS011;60644;55.858;37.390;2024-01-30T04:49:38;10.00;;;3.77;;
72601;SDS011;60644;55.858;37.390;2024-01-30T04:52:05;10.77;;;4.38;;
72601;SDS011;60644;55.858;37.390;2024-01-30T04:54:31;11.65;;;4.00;;
72601;SDS011;60644;55.858;37.390;2024-01-30T04:56:57;10.73;;;4.33;;
72601;SDS011;60644;55.858;37.390;2024-01-30T04:59:22;10.50;;;3.80;;
72601;SDS011;60644;55.858;37.390;2024-01-30T05:01:48;11.27;;;4.33;;
72601;SDS011;60644;55.858;37.390;2024-01-30T05:04:14;9.23;;;3.40;;
72601;SDS011;60644;55.858;37.390;2024-01-30T05:06:39;8.98;;;3.30;;
72601;SDS011;60644;55.858;37.390;2024-01-30T05:09:05;10.43;;;3.13;;
72601;SDS011;60644;55.858;37.390;2024-01-30T05:11:31;8.77;;;3.13;;
72601;SDS011;60644;55.858;37.390;2024-01-30T05:13:56;11.47;;;3.70;;
72601;SDS011;60644;55.858;37.390;2024-01-30T05:16:22;11.73;;;2.90;;
72601;SDS011;60644;55.858;37.390;2024-01-30T05:18:48;9.23;;;3.67;;
72601;SDS011;60644;55.858;37.390;2024-01-30T05:21:13;11.68;;;3.65;;
72601;SDS011;60644;55.858;37.390;2024-01-30T05:23:39;11.98;;;3.72;;
72601;SDS011;60644;55.858;37.390;2024-01-30T05:26:07;10.38;;;3.92;;
72601;SDS011;60644;55.858;37.390;2024-01-30T05:28:33;11.52;;;4.53;;
72601;SDS011;60644;55.858;37.390;2024-01-30T05:30:59;9.43;;;3.53;;
72601;SDS011;60644;55.858;37.390;2024-01-30T05:33:24;12.77;;;4.22;;
72601;SDS011;60644;55.858;37.390;2024-01-30T05:35:50;11.50;;;4.23;;
72601;SDS011;60644;55.858;37.390;2024-01-30T05:38:19;11.80;;;4.38;;
72601;SDS011;60644;55.858;37.390;2024-01-30T05:40:45;11.93;;;4.57;;
72601;SDS011;60644;55.858;37.390;2024-01-30T05:43:11;10.50;;;4.10;;
72601;SDS011;60644;55.858;37.390;2024-01-30T05:45:37;8.82;;;3.47;;
72601;SDS011;60644;55.858;37.390;2024-01-30T05:48:02;12.07;;;4.43;;
72601;SDS011;60644;55.858;37.390;2024-01-30T05:50:28;12.88;;;5.13;;
72601;SDS011;60644;55.858;37.390;2024-01-30T05:52:54;9.60;;;3.88;;
72601;SDS011;60644;55.858;37.390;2024-01-30T05:55:20;12.50;;;4.77;;
72601;SDS011;60644;55.858;37.390;2024-01-30T05:57:45;11.40;;;4.72;;
72601;SDS011;60644;55.858;37.390;2024-01-30T06:00:11;11.63;;;4.78;;
72601;SDS011;60644;55.858;37.390;2024-01-30T06:02:37;15.23;;;4.20;;
72601;SDS011;60644;55.858;37.390;2024-01-30T06:05:02;11.23;;;4.05;;
72601;SDS011;60644;55.858;37.390;2024-01-30T06:07:29;13.65;;;4.75;;
72601;SDS011;60644;55.858;37.390;2024-01-30T06:09:54;12.70;;;4.57;;
72601;SDS011;60644;55.858;37.390;2024-01-30T06:12:20;12.80;;;4.77;;
72601;SDS011;60644;55.858;37.390;2024-01-30T06:14:46;11.98;;;4.78;;
72601;SDS011;60644;55.858;37.390;2024-01-30T06:17:12;13.30;;;5.03;;
72601;SDS011;60644;55.858;37.390;2024-01-30T06:19:38;12.98;;;5.50;;
72601;SDS011;60644;55.858;37.390;2024-01-30T06:22:07;13.80;;;5.55;;
72601;SDS011;60644;55.858;37.390;2024-01-30T06:24:32;13.53;;;5.30;;
72601;SDS011;60644;55.858;37.390;2024-01-30T06:26:59;14.50;;;4.97;;
72601;SDS011;60644;55.858;37.390;2024-01-30T06:29:25;13.07;;;4.60;;
72601;SDS011;60644;55.858;37.390;2024-01-30T06:31:52;12.20;;;4.97;;
72601;SDS011;60644;55.858;37.390;2024-01-30T06:34:17;13.23;;;4.32;;
72601;SDS011;60644;55.858;37.390;2024-01-30T06:36:43;12.60;;;4.77;;
72601;SDS011;60644;55.858;37.390;2024-01-30T06:39:09;15.20;;;5.38;;
72601;SDS011;60644;55.858;37.390;2024-01-30T06:41:35;9.43;;;3.33;;
72601;SDS011;60644;55.858;37.390;2024-01-30T06:44:03;12.10;;;4.07;;
72601;SDS011;60644;55.858;37.390;2024-01-30T06:46:32;10.57;;;4.03;;
72601;SDS011;60644;55.858;37.390;2024-01-30T06:48:58;13.68;;;5.75;;
72601;SDS011;60644;55.858;37.390;2024-01-30T06:51:23;13.30;;;4.40;;
72601;SDS011;60644;55.858;37.390;2024-01-30T06:53:49;13.93;;;4.50;;
72601;SDS011;60644;55.858;37.390;2024-01-30T06:56:15;15.30;;;5.67;;
72601;SDS011;60644;55.858;37.390;2024-01-30T06:58:40;13.73;;;6.25;;
72601;SDS011;60644;55.858;37.390;2024-01-30T07:01:06;14.20;;;5.13;;
72601;SDS011;60644;55.858;37.390;2024-01-30T07:03:32;15.47;;;5.10;;
72601;SDS011;60644;55.858;37.390;2024-01-30T07:05:57;12.13;;;4.30;;
72601;SDS011;60644;55.858;37.390;2024-01-30T07:08:23;14.32;;;5.18;;
72601;SDS011;60644;55.858;37.390;2024-01-30T07:10:48;13.53;;;4.23;;
72601;SDS011;60644;55.858;37.390;2024-01-30T07:13:14;13.57;;;4.85;;
72601;SDS011;60644;55.858;37.390;2024-01-30T07:15:42;12.17;;;4.67;;
72601;SDS011;60644;55.858;37.390;2024-01-30T07:18:07;12.57;;;4.18;;
72601;SDS011;60644;55.858;37.390;2024-01-30T07:20:35;13.35;;;4.22;;
72601;SDS011;60644;55.858;37.390;2024-01-30T07:23:01;14.23;;;5.07;;
72601;SDS011;60644;55.858;37.390;2024-01-30T07:25:26;11.48;;;4.03;;
72601;SDS011;60644;55.858;37.390;2024-01-30T07:27:55;14.20;;;6.13;;
72601;SDS011;60644;55.858;37.390;2024-01-30T07:30:21;13.45;;;4.93;;
72601;SDS011;60644;55.858;37.390;2024-01-30T07:32:48;10.77;;;4.03;;
72601;SDS011;60644;55.858;37.390;2024-01-30T07:35:14;13.03;;;4.27;;
72601;SDS011;60644;55.858;37.390;2024-01-30T07:37:39;12.07;;;4.55;;
72601;SDS011;60644;55.858;37.390;2024-01-30T07:40:05;15.57;;;5.63;;
72601;SDS011;60644;55.858;37.390;2024-01-30T07:42:32;12.85;;;4.93;;
72601;SDS011;60644;55.858;37.390;2024-01-30T07:44:58;14.02;;;4.30;;
72601;SDS011;60644;55.858;37.390;2024-01-30T07:47:23;14.37;;;5.03;;
72601;SDS011;60644;55.858;37.390;2024-01-30T07:49:49;17.37;;;6.10;;
72601;SDS011;60644;55.858;37.390;2024-01-30T07:52:14;15.68;;;5.78;;
72601;SDS011;60644;55.858;37.390;2024-01-30T07:54:40;16.13;;;5.97;;
72601;SDS011;60644;55.858;37.390;2024-01-30T07:57:15;15.43;;;5.25;;
72601;SDS011;60644;55.858;37.390;2024-01-30T07:59:44;13.82;;;4.53;;
72601;SDS011;60644;55.858;37.390;2024-01-30T08:02:11;12.87;;;5.30;;
72601;SDS011;60644;55.858;37.390;2024-01-30T08:04:37;13.68;;;5.40;;
72601;SDS011;60644;55.858;37.390;2024-01-30T08:07:03;13.18;;;4.93;;
72601;SDS011;60644;55.858;37.390;2024-01-30T08:09:28;12.57;;;4.70;;
72601;SDS011;60644;55.858;37.390;2024-01-30T08:11:54;15.10;;;4.63;;
72601;SDS011;60644;55.858;37.390;2024-01-30T08:14:20;13.40;;;5.23;;
72601;SDS011;60644;55.858;37.390;2024-01-30T08:16:45;13.10;;;5.03;;
72601;SDS011;60644;55.858;37.390;2024-01-30T08:19:11;12.43;;;4.47;;
72601;SDS011;60644;55.858;37.390;2024-01-30T08:21:37;12.73;;;5.10;;
72601;SDS011;60644;55.858;37.390;2024-01-30T08:24:06;14.10;;;5.18;;
72601;SDS011;60644;55.858;37.390;2024-01-30T08:26:32;15.53;;;5.70;;
72601;SDS011;60644;55.858;37.390;2024-01-30T08:28:58;13.43;;;5.10;;
72601;SDS011;60644;55.858;37.390;2024-01-30T08:31:24;15.77;;;5.20;;
72601;SDS011;60644;55.858;37.390;2024-01-30T08:33:49;14.17;;;4.57;;
72601;SDS011;60644;55.858;37.390;2024-01-30T08:36:15;12.32;;;4.45;;
72601;SDS011;60644;55.858;37.390;2024-01-30T08:38:41;13.10;;;4.55;;
72601;SDS011;60644;55.858;37.390;2024-01-30T08:41:07;12.32;;;5.00;;
72601;SDS011;60644;55.858;37.390;2024-01-30T08:43:33;19.40;;;5.30;;
72601;SDS011;60644;55.858;37.390;2024-01-30T08:45:59;14.33;;;4.67;;
72601;SDS011;60644;55.858;37.390;2024-01-30T08:48:25;14.32;;;5.28;;
72601;SDS011;60644;55.858;37.390;2024-01-30T08:50:51;17.38;;;5.00;;
72601;SDS011;60644;55.858;37.390;2024-01-30T08:53:16;13.97;;;5.57;;
72601;SDS011;60644;55.858;37.390;2024-01-30T08:55:42;12.48;;;4.55;;
72601;SDS011;60644;55.858;37.390;2024-01-30T08:58:08;13.77;;;5.23;;
72601;SDS011;60644;55.858;37.390;2024-01-30T09:00:33;12.77;;;4.70;;
72601;SDS011;60644;55.858;37.390;2024-01-30T09:02:59;13.52;;;4.85;;
72601;SDS011;60644;55.858;37.390;2024-01-30T09:05:25;12.60;;;5.00;;
72601;SDS011;60644;55.858;37.390;2024-01-30T09:07:50;14.50;;;5.28;;
72601;SDS011;60644;55.858;37.390;2024-01-30T09:10:16;14.30;;;5.43;;
72601;SDS011;60644;55.858;37.390;2024-01-30T09:12:43;12.95;;;5.40;;
72601;SDS011;60644;55.858;37.390;2024-01-30T09:15:09;12.27;;;5.10;;
72601;SDS011;60644;55.858;37.390;2024-01-30T09:17:34;10.98;;;4.00;;
72601;SDS011;60644;55.858;37.390;2024-01-30T09:20:00;13.77;;;5.07;;
72601;SDS011;60644;55.858;37.390;2024-01-30T09:22:26;16.25;;;6.03;;
72601;SDS011;60644;55.858;37.390;2024-01-30T09:24:51;16.13;;;5.13;;
72601;SDS011;60644;55.858;37.390;2024-01-30T09:27:17;13.33;;;5.63;;
72601;SDS011;60644;55.858;37.390;2024-01-30T09:29:44;13.80;;;5.97;;
72601;SDS011;60644;55.858;37.390;2024-01-30T09:32:09;15.93;;;5.50;;
72601;SDS011;60644;55.858;37.390;2024-01-30T09:34:35;16.25;;;6.25;;
72601;SDS011;60644;55.858;37.390;2024-01-30T09:37:01;15.33;;;5.40;;
72601;SDS011;60644;55.858;37.390;2024-01-30T09:39:26;14.57;;;5.55;;
72601;SDS011;60644;55.858;37.390;2024-01-30T09:41:55;12.87;;;4.60;;
72601;SDS011;60644;55.858;37.390;2024-01-30T09:44:24;12.98;;;5.38;;
72601;SDS011;60644;55.858;37.390;2024-01-30T09:46:51;14.85;;;5.50;;
72601;SDS011;60644;55.858;37.390;2024-01-30T09:49:16;13.20;;;4.97;;
72601;SDS011;60644;55.858;37.390;2024-01-30T09:51:44;11.57;;;4.90;;
72601;SDS011;60644;55.858;37.390;2024-01-30T09:54:10;15.00;;;5.57;;
72601;SDS011;60644;55.858;37.390;2024-01-30T09:56:36;14.77;;;5.18;;
72601;SDS011;60644;55.858;37.390;2024-01-30T09:59:01;15.77;;;5.83;;
72601;SDS011;60644;55.858;37.390;2024-01-30T10:01:27;12.82;;;5.40;;
72601;SDS011;60644;55.858;37.390;2024-01-30T10:03:53;13.77;;;5.07;;
72601;SDS011;60644;55.858;37.390;2024-01-30T10:06:19;14.15;;;5.25;;
72601;SDS011;60644;55.858;37.390;2024-01-30T10:08:46;13.55;;;5.40;;
72601;SDS011;60644;55.858;37.390;2024-01-30T10:11:12;16.37;;;6.20;;
72601;SDS011;60644;55.858;37.390;2024-01-30T10:13:38;15.70;;;6.03;;
72601;SDS011;60644;55.858;37.390;2024-01-30T10:16:04;14.70;;;5.23;;
72601;SDS011;60644;55.858;37.390;2024-01-30T10:18:32;12.80;;;5.10;;
72601;SDS011;60644;55.858;37.390;2024-01-30T10:20:58;12.73;;;5.30;;
72601;SDS011;60644;55.858;37.390;2024-01-30T10:23:24;14.10;;;5.72;;
72601;SDS011;60644;55.858;37.390;2024-01-30T10:25:50;16.47;;;5.50;;
72601;SDS011;60644;55.858;37.390;2024-01-30T10:28:16;13.98;;;5.43;;
72601;SDS011;60644;55.858;37.390;2024-01-30T10:30:42;15.20;;;5.23;;
72601;SDS011;60644;55.858;37.390;2024-01-30T10:33:08;14.32;;;5.47;;
72601;SDS011;60644;55.858;37.390;2024-01-30T10:35:33;15.55;;;6.03;;
72601;SDS011;60644;55.858;37.390;2024-01-30T10:37:59;13.30;;;4.80;;
72601;SDS011;60644;55.858;37.390;2024-01-30T10:40:27;15.07;;;5.03;;
72601;SDS011;60644;55.858;37.390;2024-01-30T10:42:53;16.23;;;6.05;;
72601;SDS011;60644;55.858;37.390;2024-01-30T10:45:21;15.07;;;5.97;;
72601;SDS011;60644;55.858;37.390;2024-01-30T10:47:50;13.95;;;5.65;;
72601;SDS011;60644;55.858;37.390;2024-01-30T10:50:18;15.40;;;5.80;;
72601;SDS011;60644;55.858;37.390;2024-01-30T10:52:44;17.23;;;6.03;;
72601;SDS011;60644;55.858;37.390;2024-01-30T10:55:10;14.18;;;5.18;;
72601;SDS011;60644;55.858;37.390;2024-01-30T10:57:36;15.82;;;5.38;;
72601;SDS011;60644;55.858;37.390;2024-01-30T11:00:08;15.77;;;4.95;;
72601;SDS011;60644;55.858;37.390;2024-01-30T11:02:43;16.00;;;7.10;;
72601;SDS011;60644;55.858;37.390;2024-01-30T11:05:09;15.10;;;5.32;;
72601;SDS011;60644;55.858;37.390;2024-01-30T11:07:35;15.90;;;5.60;;
72601;SDS011;60644;55.858;37.390;2024-01-30T11:10:02;13.43;;;4.72;;
72601;SDS011;60644;55.858;37.390;2024-01-30T11:12:32;16.70;;;5.13;;
72601;SDS011;60644;55.858;37.390;2024-01-30T11:15:08;14.65;;;5.82;;
72601;SDS011;60644;55.858;37.390;2024-01-30T11:17:41;13.40;;;5.25;;
72601;SDS011;60644;55.858;37.390;2024-01-30T11:20:27;14.18;;;4.88;;
72601;SDS011;60644;55.858;37.390;2024-01-30T11:22:54;14.73;;;5.32;;
72601;SDS011;60644;55.858;37.390;2024-01-30T11:25:20;13.87;;;5.03;;
72601;SDS011;60644;55.858;37.390;2024-01-30T11:27:46;16.08;;;6.30;;
72601;SDS011;60644;55.858;37.390;2024-01-30T11:30:27;15.70;;;5.25;;
72601;SDS011;60644;55.858;37.390;2024-01-30T11:35:25;14.45;;;5.60;;
72601;SDS011;60644;55.858;37.390;2024-01-30T11:37:50;17.00;;;5.27;;
72601;SDS011;60644;55.858;37.390;2024-01-30T11:40:16;14.00;;;5.53;;
72601;SDS011;60644;55.858;37.390;2024-01-30T11:42:43;18.80;;;7.82;;
72601;SDS011;60644;55.858;37.390;2024-01-30T11:45:09;20.47;;;9.73;;
72601;SDS011;60644;55.858;37.390;2024-01-30T11:47:35;17.77;;;8.57;;
72601;SDS011;60644;55.858;37.390;2024-01-30T11:50:03;15.33;;;7.03;;
72601;SDS011;60644;55.858;37.390;2024-01-30T11:52:32;16.15;;;6.25;;
72601;SDS011;60644;55.858;37.390;2024-01-30T11:54:58;16.33;;;6.38;;
72601;SDS011;60644;55.858;37.390;2024-01-30T11:57:24;15.83;;;5.47;;
72601;SDS011;60644;55.858;37.390;2024-01-30T11:59:50;13.27;;;5.95;;
72601;SDS011;60644;55.858;37.390;2024-01-30T12:02:16;14.43;;;5.47;;
72601;SDS011;60644;55.858;37.390;2024-01-30T12:04:42;13.98;;;5.70;;
72601;SDS011;60644;55.858;37.390;2024-01-30T12:07:08;16.45;;;5.65;;
72601;SDS011;60644;55.858;37.390;2024-01-30T12:09:33;13.37;;;5.63;;
72601;SDS011;60644;55.858;37.390;2024-01-30T12:11:59;16.10;;;5.47;;
72601;SDS011;60644;55.858;37.390;2024-01-30T12:14:25;15.60;;;6.30;;
72601;SDS011;60644;55.858;37.390;2024-01-30T12:16:51;14.95;;;5.43;;
72601;SDS011;60644;55.858;37.390;2024-01-30T12:19:23;15.53;;;6.00;;
72601;SDS011;60644;55.858;37.390;2024-01-30T12:21:57;15.25;;;6.30;;
72601;SDS011;60644;55.858;37.390;2024-01-30T12:24:25;14.25;;;5.97;;
72601;SDS011;60644;55.858;37.390;2024-01-30T12:26:51;14.55;;;4.82;;
72601;SDS011;60644;55.858;37.390;2024-01-30T12:29:17;14.15;;;5.40;;
72601;SDS011;60644;55.858;37.390;2024-01-30T12:31:42;18.77;;;5.83;;
72601;SDS011;60644;55.858;37.390;2024-01-30T12:34:09;14.95;;;5.40;;
72601;SDS011;60644;55.858;37.390;2024-01-30T12:36:34;18.60;;;6.70;;
72601;SDS011;60644;55.858;37.390;2024-01-30T12:39:01;15.75;;;5.82;;
72601;SDS011;60644;55.858;37.390;2024-01-30T12:41:26;14.00;;;5.30;;
72601;SDS011;60644;55.858;37.390;2024-01-30T12:43:56;16.00;;;7.00;;
72601;SDS011;60644;55.858;37.390;2024-01-30T12:46:25;16.00;;;5.82;;
72601;SDS011;60644;55.858;37.390;2024-01-30T12:48:50;14.20;;;5.88;;
72601;SDS011;60644;55.858;37.390;2024-01-30T12:51:16;15.87;;;6.37;;
72601;SDS011;60644;55.858;37.390;2024-01-30T12:53:42;16.42;;;6.47;;
72601;SDS011;60644;55.858;37.390;2024-01-30T12:56:08;16.30;;;6.70;;
72601;SDS011;60644;55.858;37.390;2024-01-30T12:58:34;15.90;;;5.65;;
72601;SDS011;60644;55.858;37.390;2024-01-30T13:00:59;16.53;;;6.63;;
72601;SDS011;60644;55.858;37.390;2024-01-30T13:03:25;20.10;;;7.10;;
72601;SDS011;60644;55.858;37.390;2024-01-30T13:05:51;15.90;;;6.60;;
72601;SDS011;60644;55.858;37.390;2024-01-30T13:08:16;16.30;;;6.35;;
72601;SDS011;60644;55.858;37.390;2024-01-30T13:10:42;13.57;;;5.67;;
72601;SDS011;60644;55.858;37.390;2024-01-30T13:13:08;15.53;;;5.73;;
72601;SDS011;60644;55.858;37.390;2024-01-30T13:15:35;12.75;;;6.13;;
72601;SDS011;60644;55.858;37.390;2024-01-30T13:18:00;14.77;;;6.20;;
72601;SDS011;60644;55.858;37.390;2024-01-30T13:20:26;18.10;;;6.53;;
72601;SDS011;60644;55.858;37.390;2024-01-30T13:22:52;16.33;;;5.63;;
72601;SDS011;60644;55.858;37.390;2024-01-30T13:25:18;15.10;;;6.45;;
72601;SDS011;60644;55.858;37.390;2024-01-30T13:27:44;17.27;;;6.90;;
72601;SDS011;60644;55.858;37.390;2024-01-30T13:30:10;15.02;;;6.00;;
72601;SDS011;60644;55.858;37.390;2024-01-30T13:32:36;18.80;;;7.93;;
72601;SDS011;60644;55.858;37.390;2024-01-30T13:35:02;17.88;;;6.60;;
72601;SDS011;60644;55.858;37.390;2024-01-30T13:37:30;18.03;;;6.57;;
72601;SDS011;60644;55.858;37.390;2024-01-30T13:39:56;16.10;;;6.63;;
72601;SDS011;60644;55.858;37.390;2024-01-30T13:42:22;17.55;;;6.53;;
72601;SDS011;60644;55.858;37.390;2024-01-30T13:44:48;18.23;;;6.63;;
72601;SDS011;60644;55.858;37.390;2024-01-30T13:47:14;15.90;;;6.60;;
72601;SDS011;60644;55.858;37.390;2024-01-30T13:49:40;17.57;;;6.90;;
72601;SDS011;60644;55.858;37.390;2024-01-30T13:52:05;16.27;;;6.28;;
72601;SDS011;60644;55.858;37.390;2024-01-30T13:54:31;19.00;;;6.87;;
72601;SDS011;60644;55.858;37.390;2024-01-30T13:56:57;16.35;;;5.72;;
72601;SDS011;60644;55.858;37.390;2024-01-30T13:59:23;16.30;;;6.07;;
72601;SDS011;60644;55.858;37.390;2024-01-30T14:01:50;14.68;;;6.82;;
72601;SDS011;60644;55.858;37.390;2024-01-30T14:04:15;16.55;;;6.18;;
72601;SDS011;60644;55.858;37.390;2024-01-30T14:06:41;16.38;;;6.78;;
72601;SDS011;60644;55.858;37.390;2024-01-30T14:09:07;16.80;;;6.63;;
72601;SDS011;60644;55.858;37.390;2024-01-30T14:11:33;16.10;;;6.35;;
72601;SDS011;60644;55.858;37.390;2024-01-30T14:13:58;15.20;;;5.73;;
72601;SDS011;60644;55.858;37.390;2024-01-30T14:16:24;21.63;;;6.30;;
72601;SDS011;60644;55.858;37.390;2024-01-30T14:18:50;15.37;;;6.53;;
72601;SDS011;60644;55.858;37.390;2024-01-30T14:21:16;15.00;;;6.38;;
72601;SDS011;60644;55.858;37.390;2024-01-30T14:23:41;13.10;;;4.90;;